Terminal Aerodrome Forecast
Issued by NWS Lake Charles, LA

Home | Current Version | Previous Version | Text Only | Print | Product List | Glossary On
Versions: 1 2 3 4 5 6 7 8 9 10 11 12 13 14 15 16 17 18
000
FTUS44 KLCH 221100
TAFARA
TAF
KARA 221130Z 2212/2312 34006KT P6SM FEW030
     FM221900 32005KT P6SM VCTS SCT035CB SCT200
     FM230200 VRB03KT P6SM FEW025 BKN200=

USA.gov is the U.S. government's official web portal to all federal, state and local government web resources and services.